Weather History for Plainview, TX

Change the Weather History Date:

Wednesday, January 30, 2013

  Actual Average Record
Temperature  
Mean Temperature 35 °F -  
Max Temperature 46 °F 52 °F 77 °F (1911)
Min Temperature 24 °F 25 °F 2 °F (1949)
Degree Days  
Heating Degree Days 30    
Moisture  
Dew Point 12 °F    
Average Humidity 46    
Maximum Humidity 75    
Minimum Humidity 15    
Precipitation  
Precipitation 0.00 in - - ()
Sea Level Pressure  
Sea Level Pressure 30.01 in    
Wind  
Wind Speed 14 mph (WNW)    
Max Wind Speed 20 mph    
Max Gust Speed 29 mph    
Visibility 10 miles    
Events      
Averages and records for this station are not official NWS values.
T = Trace of Precipitation, MM = Missing Value Source: NWS Daily Summary

Daily Weather History Graph

Daily Weather History Graph

Search for Another Location

Airport:

Trip Planner

Search our weather history database for the weather conditions in past years. The results will help you decide how hot, cold, wet, or windy it might be!

Date:

Astronomy

Jan. 30, 2013 Rise Set
Actual Time 7:45 AM CST 6:15 PM CST
Civil Twilight 7:18 AM CST 6:41 PM CST
Nautical Twilight 6:48 AM CST 7:11 PM CST
Astronomical Twilight 6:19 AM CST 7:41 PM CST
Moon 10:02 PM CST (1/30) 9:26 AM CST (1/30)
Length of Visible Light 11h 22m
Length of Day
10h 30m
Waning Gibbous, 87% of the Moon is Illuminated
Jan 30
Waning Gibbous
Feb 3
Last Quarter
Feb 10
New
Feb 17
First Quarter
Feb 25
Full

Hourly Weather History & Observations

Time (CST) Temp. Windchill Dew Point Humidity Pressure Visibility Wind Dir Wind Speed Gust Speed Precip Events Conditions
12:15 AM 30.2 °F 19.8 °F 23.0 °F 75% 29.82 in 10.0 mi NNW 13.8 mph - N/A   Scattered Clouds
12:35 AM 30.2 °F 19.8 °F 23.0 °F 75% 29.83 in 10.0 mi NW 13.8 mph - N/A   Clear
12:55 AM 30.2 °F 19.3 °F 23.0 °F 75% 29.84 in 10.0 mi NNW 15.0 mph - N/A   Scattered Clouds
1:15 AM 30.2 °F 18.9 °F 23.0 °F 75% 29.85 in 10.0 mi NNW 16.1 mph 20.7 mph N/A   Scattered Clouds
1:35 AM 30.2 °F 19.8 °F 23.0 °F 75% 29.86 in 10.0 mi NNW 13.8 mph 21.9 mph N/A   Scattered Clouds
1:55 AM 30.2 °F 19.3 °F 23.0 °F 75% 29.86 in 10.0 mi NW 15.0 mph 19.6 mph N/A   Clear
2:15 AM 30.2 °F 17.8 °F 21.2 °F 69% 29.87 in 10.0 mi NW 19.6 mph 24.2 mph N/A   Clear
2:35 AM 30.2 °F 18.5 °F 21.2 °F 69% 29.88 in 10.0 mi NW 17.3 mph - N/A   Clear
2:55 AM 30.2 °F 19.8 °F 21.2 °F 69% 29.89 in 10.0 mi NW 13.8 mph - N/A   Clear
3:15 AM 30.2 °F 18.9 °F 21.2 °F 69% 29.90 in 10.0 mi NW 16.1 mph - N/A   Clear
3:35 AM 30.2 °F 17.8 °F 21.2 °F 69% 29.92 in 10.0 mi NW 19.6 mph - N/A   Clear
3:55 AM 28.4 °F 16.2 °F 19.4 °F 69% 29.92 in 10.0 mi NW 17.3 mph - N/A   Clear
4:15 AM 28.4 °F 15.8 °F 17.6 °F 64% 29.94 in 10.0 mi NW 18.4 mph - N/A   Clear
4:35 AM 28.4 °F 16.2 °F 17.6 °F 64% 29.95 in 10.0 mi NW 17.3 mph - N/A   Clear
4:55 AM 28.4 °F 16.6 °F 19.4 °F 69% 29.96 in 10.0 mi NW 16.1 mph - N/A   Clear
5:15 AM 26.6 °F 14.7 °F 17.6 °F 69% 29.97 in 10.0 mi NW 15.0 mph - N/A   Clear
5:35 AM 26.6 °F 14.7 °F 17.6 °F 69% 29.98 in 10.0 mi NW 15.0 mph - N/A   Clear
5:55 AM 26.6 °F 15.7 °F 17.6 °F 69% 29.99 in 10.0 mi NW 12.7 mph - N/A   Clear
6:15 AM 26.6 °F 15.2 °F 17.6 °F 69% 30.00 in 10.0 mi NW 13.8 mph - N/A   Clear
6:35 AM 26.6 °F 14.7 °F 17.6 °F 69% 30.01 in 10.0 mi NW 15.0 mph 19.6 mph N/A   Clear
6:55 AM 26.6 °F 14.3 °F 15.8 °F 64% 30.02 in 10.0 mi NW 16.1 mph 20.7 mph N/A   Clear
7:15 AM 26.6 °F 15.2 °F 15.8 °F 64% 30.02 in 10.0 mi NW 13.8 mph - N/A   Clear
7:35 AM 26.6 °F 15.2 °F 15.8 °F 64% 30.04 in 10.0 mi NW 13.8 mph - N/A   Clear
7:55 AM 24.8 °F 13.4 °F 14.0 °F 64% 30.05 in 10.0 mi NW 12.7 mph - N/A   Clear
8:15 AM 26.6 °F 15.2 °F 15.8 °F 64% 30.05 in 10.0 mi NW 13.8 mph - N/A   Clear
8:35 AM 28.4 °F 18.0 °F 17.6 °F 64% 30.06 in 10.0 mi NW 12.7 mph - N/A   Clear
8:55 AM 30.2 °F 20.2 °F 17.6 °F 60% 30.06 in 10.0 mi NW 12.7 mph - N/A   Clear
9:15 AM 30.2 °F 19.3 °F 17.6 °F 60% 30.07 in 10.0 mi NNW 15.0 mph 20.7 mph N/A   Clear
9:35 AM 32.0 °F 21.6 °F 17.6 °F 55% 30.07 in 10.0 mi NNW 15.0 mph - N/A   Clear
9:55 AM 32.0 °F 21.2 °F 17.6 °F 55% 30.08 in 10.0 mi NNW 16.1 mph - N/A   Clear
10:15 AM 33.8 °F 23.9 °F 19.4 °F 56% 30.08 in 10.0 mi North 15.0 mph - N/A   Clear
10:35 AM 33.8 °F 23.5 °F 17.6 °F 52% 30.08 in 10.0 mi NNW 16.1 mph - N/A   Clear
10:55 AM 35.6 °F 27.1 °F 17.6 °F 48% 30.08 in 10.0 mi NNW 12.7 mph 19.6 mph N/A   Clear
11:15 AM 35.6 °F 27.1 °F 14.0 °F 41% 30.08 in 10.0 mi NW 12.7 mph - N/A   Clear
11:35 AM 35.6 °F 27.5 °F 12.2 °F 38% 30.09 in 10.0 mi NW 11.5 mph 19.6 mph N/A   Clear
11:55 AM 37.4 °F 29.3 °F 12.2 °F 36% 30.08 in 10.0 mi NW 12.7 mph 18.4 mph N/A   Clear
12:15 PM 39.2 °F 30.8 °F 12.2 °F 33% 30.07 in 10.0 mi WNW 15.0 mph 20.7 mph N/A   Clear
12:35 PM 39.2 °F 30.2 °F 10.4 °F 31% 30.07 in 10.0 mi WNW 17.3 mph 21.9 mph N/A   Clear
12:55 PM 41.0 °F 32.8 °F 10.4 °F 29% 30.06 in 10.0 mi West 16.1 mph 23.0 mph N/A   Clear
1:15 PM 41.0 °F 31.9 °F 10.4 °F 29% 30.05 in 10.0 mi West 19.6 mph 23.0 mph N/A   Clear
1:35 PM 41.0 °F 32.5 °F 10.4 °F 29% 30.04 in 10.0 mi West 17.3 mph 25.3 mph N/A   Clear
1:55 PM 42.8 °F 34.8 °F 10.4 °F 27% 30.02 in 10.0 mi West 17.3 mph 28.8 mph N/A   Scattered Clouds
2:15 PM 42.8 °F 35.1 °F 8.6 °F 25% 30.01 in 10.0 mi West 16.1 mph 24.2 mph N/A   Scattered Clouds
2:35 PM 44.6 °F 36.9 °F 5.0 °F 20% 30.00 in 10.0 mi West 18.4 mph 25.3 mph N/A   Clear
2:55 PM 46.4 °F 39.2 °F 6.8 °F 20% 29.99 in 10.0 mi West 18.4 mph 25.3 mph N/A   Clear
3:15 PM 44.6 °F 36.6 °F 1.4 °F 17% 29.99 in 10.0 mi West 19.6 mph 26.5 mph N/A   Clear
3:35 PM 46.4 °F 39.0 °F 1.4 °F 16% 30.00 in 10.0 mi West 19.6 mph 26.5 mph N/A   Clear
3:55 PM 46.4 °F 39.0 °F 3.2 °F 17% 30.00 in 10.0 mi West 19.6 mph 27.6 mph N/A   Clear
4:15 PM 46.4 °F 39.2 °F 3.2 °F 17% 30.00 in 10.0 mi West 18.4 mph 27.6 mph N/A   Clear
4:35 PM 46.4 °F 39.5 °F 3.2 °F 17% 30.00 in 10.0 mi West 17.3 mph 24.2 mph N/A   Clear
4:55 PM 46.4 °F 39.0 °F 1.4 °F 16% 30.00 in 10.0 mi WNW 19.6 mph 23.0 mph N/A   Clear
5:15 PM 44.6 °F 37.4 °F 1.4 °F 17% 30.00 in 10.0 mi WNW 16.1 mph - N/A   Clear
5:35 PM 44.6 °F 38.1 °F -0.4 °F 15% 30.02 in 10.0 mi NW 13.8 mph 20.7 mph N/A   Clear
6:15 PM 39.2 °F 35.0 °F -0.4 °F 19% 30.02 in 10.0 mi NW 5.8 mph - N/A   Clear
6:35 PM 35.6 °F 32.8 °F 1.4 °F 24% 30.02 in 10.0 mi West 3.5 mph - N/A   Clear
6:55 PM 35.6 °F 32.8 °F 3.2 °F 26% 30.02 in 10.0 mi SW 3.5 mph - N/A   Clear
7:15 PM 35.6 °F 32.8 °F 3.2 °F 26% 30.04 in 10.0 mi SW 3.5 mph - N/A   Clear
7:35 PM 33.8 °F 27.7 °F 3.2 °F 28% 30.05 in 10.0 mi SSW 6.9 mph - N/A   Clear
7:55 PM 33.8 °F 27.0 °F 5.0 °F 30% 30.05 in 10.0 mi SW 8.1 mph - N/A   Clear
8:15 PM 32.0 °F 25.6 °F 5.0 °F 32% 30.05 in 10.0 mi SSW 6.9 mph - N/A   Clear
8:35 PM 32.0 °F 25.6 °F 3.2 °F 30% 30.06 in 10.0 mi SSW 6.9 mph - N/A   Clear
8:55 PM 32.0 °F 27.5 °F 5.0 °F 32% 30.06 in 10.0 mi SW 4.6 mph - N/A   Clear
9:15 PM 32.0 °F 26.4 °F 5.0 °F 32% 30.06 in 10.0 mi SW 5.8 mph - N/A   Clear
9:35 PM 30.2 °F 22.6 °F 5.0 °F 34% 30.06 in 10.0 mi SW 8.1 mph - N/A   Clear
9:55 PM 32.0 °F 24.8 °F 6.8 °F 35% 30.05 in 10.0 mi SW 8.1 mph - N/A   Clear
10:15 PM 30.2 °F 23.4 °F 8.6 °F 40% 30.04 in 10.0 mi WSW 6.9 mph - N/A   Clear
10:35 PM 30.2 °F 21.9 °F 8.6 °F 40% 30.04 in 10.0 mi SW 9.2 mph - N/A   Clear
10:55 PM 30.2 °F 21.9 °F 8.6 °F 40% 30.04 in 10.0 mi SW 9.2 mph - N/A   Clear
11:15 PM 32.0 °F 24.2 °F 10.4 °F 41% 30.05 in 10.0 mi SW 9.2 mph - N/A   Clear
11:35 PM 32.0 °F 23.6 °F 12.2 °F 44% 30.04 in 10.0 mi WSW 10.4 mph - N/A   Clear
11:55 PM 32.0 °F 23.6 °F 10.4 °F 41% 30.04 in 10.0 mi WSW 10.4 mph - N/A   Clear